createdAt,value
2023-01-09T00:01:40.556Z,74.45
2023-01-09T00:03:42.664Z,74.70
2023-01-09T00:05:44.726Z,74.84
2023-01-09T00:07:46.510Z,74.23
2023-01-09T00:09:48.375Z,74.34
2023-01-09T00:11:51.297Z,74.65
2023-01-09T00:13:53.187Z,74.30
2023-01-09T00:15:54.977Z,74.11
2023-01-09T00:17:57.031Z,74.25
2023-01-09T00:19:59.178Z,73.94
2023-01-09T00:22:01.037Z,73.70
2023-01-09T00:24:02.955Z,73.34
2023-01-09T00:26:08.869Z,72.88
2023-01-09T00:28:11.117Z,73.07
2023-01-09T00:30:13.441Z,73.04
2023-01-09T00:32:16.254Z,73.38
2023-01-09T00:34:18.012Z,73.29
2023-01-09T00:36:19.947Z,72.76
2023-01-09T00:38:21.716Z,73.62
2023-01-09T00:40:23.626Z,73.40
2023-01-09T00:42:30.996Z,72.97
2023-01-09T00:44:37.507Z,72.58
2023-01-09T00:46:43.921Z,73.19
2023-01-09T00:48:48.241Z,72.74
2023-01-09T00:50:50.164Z,72.63
2023-01-09T00:52:57.147Z,72.69
2023-01-09T00:54:59.836Z,72.92
2023-01-09T00:57:02.205Z,73.18
2023-01-09T00:59:05.370Z,73.49
2023-01-09T01:01:07.293Z,73.21
2023-01-09T01:03:09.373Z,73.71
2023-01-09T01:05:20.259Z,73.26
2023-01-09T01:07:32.386Z,73.52
2023-01-09T01:09:34.335Z,73.87
2023-01-09T01:11:36.429Z,73.77
2023-01-09T01:13:40.080Z,73.71
2023-01-09T01:15:43.423Z,73.49
2023-01-09T01:17:46.088Z,72.93
2023-01-09T01:19:47.945Z,73.73
2023-01-09T01:21:49.854Z,74.02
2023-01-09T01:23:51.652Z,73.32
2023-01-09T01:25:53.665Z,73.44
2023-01-09T01:27:55.412Z,72.87
2023-01-09T01:29:57.516Z,73.00
2023-01-09T01:31:59.333Z,73.21
2023-01-09T01:34:01.203Z,72.46
2023-01-09T01:36:06.225Z,72.53
2023-01-09T01:38:08.136Z,72.28
2023-01-09T01:40:11.829Z,72.36
2023-01-09T01:42:14.786Z,72.03
2023-01-09T01:44:35.565Z,71.91
2023-01-09T01:46:37.257Z,71.81
2023-01-09T01:48:38.993Z,71.95
2023-01-09T01:50:50.229Z,71.99
2023-01-09T01:53:00.987Z,72.15
2023-01-09T01:55:04.888Z,71.84
2023-01-09T01:57:07.058Z,72.05
2023-01-09T01:59:17.459Z,71.27
2023-01-09T02:01:20.967Z,71.79
2023-01-09T02:03:27.131Z,71.36
2023-01-09T02:05:29.759Z,72.00
2023-01-09T02:07:31.587Z,72.20
2023-01-09T02:09:33.524Z,71.95
2023-01-09T02:11:35.200Z,71.84
2023-01-09T02:13:40.601Z,71.81
2023-01-09T02:15:57.740Z,71.82
2023-01-09T02:18:17.656Z,72.05
2023-01-09T02:20:41.472Z,71.66
2023-01-09T02:22:54.114Z,71.62
2023-01-09T02:25:15.439Z,72.34
2023-01-09T02:27:29.563Z,71.50
2023-01-09T02:29:50.292Z,71.07
2023-01-09T02:32:05.992Z,70.79
2023-01-09T02:34:11.076Z,70.68
2023-01-09T02:36:26.279Z,70.93
2023-01-09T02:38:33.962Z,71.01
2023-01-09T02:40:44.423Z,70.90
2023-01-09T02:42:48.726Z,69.98
2023-01-09T02:44:51.086Z,70.15
2023-01-09T02:47:12.737Z,70.56
2023-01-09T02:49:16.921Z,69.91
2023-01-09T02:51:35.903Z,70.10
2023-01-09T02:53:57.752Z,69.16
2023-01-09T02:56:21.379Z,69.83
2023-01-09T02:58:52.341Z,69.79
2023-01-09T03:01:01.107Z,69.83
2023-01-09T03:03:22.395Z,69.79
2023-01-09T03:05:25.473Z,69.58
2023-01-09T03:07:41.814Z,69.84
2023-01-09T03:09:47.728Z,69.34
2023-01-09T03:11:56.523Z,69.26
2023-01-09T03:14:08.132Z,69.09
2023-01-09T03:16:13.640Z,68.96
2023-01-09T03:18:18.772Z,68.94
2023-01-09T03:20:24.533Z,69.21
2023-01-09T03:22:26.335Z,69.08
2023-01-09T03:24:28.224Z,68.57
2023-01-09T03:26:31.115Z,68.95
2023-01-09T03:28:32.812Z,68.49
2023-01-09T03:30:36.101Z,68.18
2023-01-09T03:32:37.779Z,68.08
2023-01-09T03:34:39.525Z,68.32
2023-01-09T03:36:41.265Z,67.99
2023-01-09T03:38:42.911Z,68.31
2023-01-09T03:40:44.680Z,68.37
2023-01-09T03:42:46.978Z,68.06
2023-01-09T03:44:50.810Z,68.03
2023-01-09T03:46:52.537Z,67.80
2023-01-09T03:48:54.174Z,67.59
2023-01-09T03:50:56.923Z,68.01
2023-01-09T03:52:58.590Z,67.63
2023-01-09T03:55:00.271Z,67.82
2023-01-09T03:57:02.011Z,68.27
2023-01-09T03:59:03.691Z,67.82
2023-01-09T04:01:09.483Z,68.07
2023-01-09T04:03:12.016Z,68.08
2023-01-09T04:05:14.089Z,68.13
2023-01-09T04:07:15.808Z,68.26
2023-01-09T04:09:17.523Z,68.43
2023-01-09T04:11:19.275Z,68.57
2023-01-09T04:13:20.931Z,68.45
2023-01-09T04:15:23.425Z,68.43
2023-01-09T04:17:25.110Z,68.43
2023-01-09T04:19:26.850Z,68.38
2023-01-09T04:21:28.554Z,68.65
2023-01-09T04:23:30.205Z,68.86
2023-01-09T04:25:31.884Z,68.98
2023-01-09T04:27:33.993Z,69.31
2023-01-09T04:29:35.634Z,69.12
2023-01-09T04:31:37.441Z,68.98
2023-01-09T04:33:39.187Z,69.12
2023-01-09T04:35:40.914Z,69.21
2023-01-09T04:37:42.590Z,69.62
2023-01-09T04:39:44.298Z,69.38
2023-01-09T04:41:49.024Z,69.52
2023-01-09T04:43:50.710Z,69.48
2023-01-09T04:45:52.421Z,69.68
2023-01-09T04:47:54.125Z,69.72
2023-01-09T04:49:55.803Z,69.57
2023-01-09T04:51:57.711Z,69.98
2023-01-09T04:53:59.417Z,70.04
2023-01-09T04:56:01.169Z,70.05
2023-01-09T04:58:02.836Z,70.20
2023-01-09T05:00:09.724Z,69.95
2023-01-09T05:02:11.687Z,69.88
2023-01-09T05:04:14.296Z,70.17
2023-01-09T05:06:16.200Z,69.73
2023-01-09T05:08:17.865Z,70.46
2023-01-09T05:10:19.780Z,70.04
2023-01-09T05:12:21.463Z,69.94
2023-01-09T05:14:23.121Z,70.14
2023-01-09T05:16:24.964Z,70.19
2023-01-09T05:18:26.639Z,69.86
2023-01-09T05:20:28.367Z,70.27
2023-01-09T05:22:30.014Z,69.81
2023-01-09T05:24:31.822Z,70.17
2023-01-09T05:26:33.823Z,69.59
2023-01-09T05:28:35.529Z,70.04
2023-01-09T05:30:37.179Z,70.23
2023-01-09T05:32:38.894Z,70.17
2023-01-09T05:34:40.614Z,69.87
2023-01-09T05:36:42.355Z,69.79
2023-01-09T05:38:44.129Z,70.00
2023-01-09T05:40:45.837Z,70.06
2023-01-09T05:42:47.554Z,70.09
2023-01-09T05:44:49.243Z,69.75
2023-01-09T05:46:51.126Z,69.61
2023-01-09T05:48:52.849Z,69.57
2023-01-09T05:50:54.590Z,69.65
2023-01-09T05:52:56.259Z,69.98
2023-01-09T05:54:57.984Z,69.97
2023-01-09T05:56:59.662Z,69.59
2023-01-09T05:59:01.401Z,69.70
2023-01-09T06:01:03.099Z,69.61
2023-01-09T06:03:05.075Z,69.78
2023-01-09T06:05:07.806Z,69.74
2023-01-09T06:07:09.834Z,69.95
2023-01-09T06:09:11.609Z,70.02
2023-01-09T06:11:13.273Z,70.19
2023-01-09T06:13:15.089Z,70.54
2023-01-09T06:15:17.706Z,70.15
2023-01-09T06:17:19.395Z,70.41
2023-01-09T06:19:21.200Z,70.63
2023-01-09T06:21:22.883Z,70.72
2023-01-09T06:23:24.594Z,71.04
2023-01-09T06:25:26.303Z,71.00
2023-01-09T06:27:28.071Z,70.84
2023-01-09T06:29:29.752Z,70.79
2023-01-09T06:31:31.554Z,71.25
2023-01-09T06:33:33.329Z,71.42
2023-01-09T06:35:35.026Z,72.00
2023-01-09T06:37:36.878Z,71.84
2023-01-09T06:39:38.644Z,71.89
2023-01-09T06:41:40.444Z,71.57
2023-01-09T06:43:42.117Z,71.17
2023-01-09T06:45:43.961Z,71.57
2023-01-09T06:47:45.738Z,71.61
2023-01-09T06:49:47.514Z,71.21
2023-01-09T06:51:51.808Z,71.20
2023-01-09T06:53:53.499Z,70.77
2023-01-09T06:55:55.243Z,70.95
2023-01-09T06:57:56.968Z,71.33
2023-01-09T06:59:58.611Z,70.93
2023-01-09T07:02:00.493Z,71.09
2023-01-09T07:04:02.294Z,71.11
2023-01-09T07:06:05.035Z,70.61
2023-01-09T07:08:07.086Z,70.88
2023-01-09T07:10:10.308Z,70.60
2023-01-09T07:12:12.884Z,69.99
2023-01-09T07:14:14.645Z,70.24
2023-01-09T07:16:16.500Z,70.38
2023-01-09T07:18:18.260Z,70.27
2023-01-09T07:20:20.713Z,70.08
2023-01-09T07:22:22.459Z,69.90
2023-01-09T07:24:24.163Z,70.07
2023-01-09T07:26:26.169Z,69.76
2023-01-09T07:28:27.866Z,69.89
2023-01-09T07:30:29.616Z,69.97
2023-01-09T07:32:32.088Z,69.96
2023-01-09T07:34:33.840Z,69.48
2023-01-09T07:36:35.647Z,69.69
2023-01-09T07:38:37.627Z,69.25
2023-01-09T07:40:39.414Z,69.31
2023-01-09T07:42:41.119Z,68.90
2023-01-09T07:44:42.859Z,68.63
2023-01-09T07:46:44.849Z,69.13
2023-01-09T07:48:46.655Z,68.89
2023-01-09T07:50:48.445Z,69.01
2023-01-09T07:52:50.179Z,69.10
2023-01-09T07:54:51.910Z,68.43
2023-01-09T07:56:53.998Z,68.40
2023-01-09T07:58:55.822Z,68.49
2023-01-09T08:00:58.296Z,68.40
2023-01-09T08:03:00.197Z,68.51
2023-01-09T08:05:02.166Z,68.63
2023-01-09T08:07:03.969Z,68.24
2023-01-09T08:09:05.750Z,68.47
2023-01-09T08:11:07.474Z,68.42
2023-01-09T08:13:09.387Z,68.43
2023-01-09T08:15:11.915Z,69.07
2023-01-09T08:17:13.824Z,68.53
2023-01-09T08:19:15.538Z,68.53
2023-01-09T08:21:17.438Z,68.54
2023-01-09T08:23:19.206Z,68.44
2023-01-09T08:25:21.411Z,68.43
2023-01-09T08:27:23.224Z,68.31
2023-01-09T08:29:25.070Z,68.38
2023-01-09T08:31:26.893Z,68.83
2023-01-09T08:33:29.346Z,68.99
2023-01-09T08:35:31.295Z,68.71
2023-01-09T08:37:33.097Z,68.56
2023-01-09T08:39:36.130Z,68.67
2023-01-09T08:41:47.348Z,68.56
2023-01-09T08:43:58.390Z,68.75
2023-01-09T08:46:10.255Z,68.85
2023-01-09T08:48:12.076Z,68.74
2023-01-09T08:50:14.191Z,68.36
2023-01-09T08:52:16.056Z,68.23
2023-01-09T08:54:17.822Z,68.56
2023-01-09T08:56:19.633Z,68.65
2023-01-09T08:58:21.486Z,68.46
2023-01-09T09:00:24.657Z,68.38
2023-01-09T09:02:26.436Z,68.42
2023-01-09T09:04:28.457Z,68.40
2023-01-09T09:06:30.181Z,67.88
2023-01-09T09:08:31.914Z,68.40
2023-01-09T09:10:34.047Z,68.54
2023-01-09T09:12:35.866Z,68.50
2023-01-09T09:14:47.658Z,68.04
2023-01-09T09:16:50.533Z,67.47
2023-01-09T09:18:52.943Z,67.53
2023-01-09T09:20:54.679Z,68.01
2023-01-09T09:22:56.526Z,67.47
2023-01-09T09:24:58.320Z,67.90
2023-01-09T09:27:00.144Z,67.54
2023-01-09T09:29:02.657Z,67.55
2023-01-09T09:31:06.880Z,67.69
2023-01-09T09:33:09.289Z,67.91
2023-01-09T09:35:11.744Z,67.98
2023-01-09T09:37:13.786Z,67.68
2023-01-09T09:39:16.032Z,67.21
2023-01-09T09:41:25.640Z,68.26
2023-01-09T09:43:40.121Z,67.22
2023-01-09T09:45:49.191Z,67.71
2023-01-09T09:47:57.597Z,67.04
2023-01-09T09:50:05.965Z,66.89
2023-01-09T09:52:19.760Z,66.66
2023-01-09T09:54:28.100Z,66.76
2023-01-09T09:56:36.588Z,66.78
2023-01-09T09:58:42.104Z,66.96
2023-01-09T10:00:44.543Z,67.05
2023-01-09T10:02:52.521Z,66.87
2023-01-09T10:05:01.451Z,66.83
2023-01-09T10:07:09.701Z,66.87
2023-01-09T10:09:16.525Z,66.47
2023-01-09T10:11:28.007Z,66.41
2023-01-09T10:13:33.579Z,66.45
2023-01-09T10:15:45.241Z,66.98
2023-01-09T10:17:51.070Z,66.71
2023-01-09T10:19:59.475Z,65.85
2023-01-09T10:22:12.680Z,65.34
2023-01-09T10:24:16.692Z,65.70
2023-01-09T10:26:23.206Z,64.88
2023-01-09T10:28:28.982Z,65.62
2023-01-09T10:30:37.323Z,65.66
2023-01-09T10:32:54.300Z,65.54
2023-01-09T10:35:02.815Z,65.51
2023-01-09T10:37:09.984Z,65.58
2023-01-09T10:39:20.627Z,65.12
2023-01-09T10:41:26.891Z,65.50
2023-01-09T10:43:35.179Z,65.31
2023-01-09T10:45:44.527Z,64.68
2023-01-09T10:47:47.545Z,64.67
2023-01-09T10:49:51.813Z,64.44
2023-01-09T10:52:11.392Z,64.69
2023-01-09T10:54:16.147Z,64.18
2023-01-09T10:56:24.344Z,64.72
2023-01-09T10:58:26.513Z,64.79
2023-01-09T11:00:28.927Z,64.09
2023-01-09T11:02:34.656Z,64.48
2023-01-09T11:04:39.811Z,63.85
2023-01-09T11:06:49.081Z,62.71
2023-01-09T11:08:57.751Z,62.76
2023-01-09T11:11:02.473Z,62.25
2023-01-09T11:13:18.445Z,62.30
2023-01-09T11:15:29.531Z,61.88
2023-01-09T11:17:31.770Z,61.26
2023-01-09T11:19:33.948Z,61.76
2023-01-09T11:21:42.061Z,60.64
2023-01-09T11:23:44.461Z,60.37
2023-01-09T11:25:54.182Z,59.77
2023-01-09T11:28:02.527Z,59.87
2023-01-09T11:30:08.526Z,60.03
2023-01-09T11:32:16.789Z,58.79
2023-01-09T11:34:28.090Z,59.45
2023-01-09T11:36:31.719Z,59.37
2023-01-09T11:38:48.515Z,58.81
2023-01-09T11:40:56.811Z,59.03
2023-01-09T11:43:03.428Z,58.96
2023-01-09T11:45:06.461Z,58.92
2023-01-09T11:47:26.941Z,58.50
2023-01-09T11:49:31.560Z,58.81
2023-01-09T11:51:35.828Z,57.51
2023-01-09T11:53:44.020Z,56.77
2023-01-09T11:55:50.358Z,56.88
2023-01-09T11:57:53.691Z,56.93
2023-01-09T12:00:02.108Z,57.45
2023-01-09T12:02:05.999Z,57.75
2023-01-09T12:04:14.366Z,57.09
2023-01-09T12:06:27.473Z,56.70
2023-01-09T12:08:35.650Z,57.08
2023-01-09T12:10:43.843Z,56.66
2023-01-09T12:12:51.963Z,56.01
2023-01-09T12:15:00.223Z,55.81
2023-01-09T12:17:13.407Z,55.34
2023-01-09T12:19:38.012Z,55.90
2023-01-09T12:21:49.664Z,55.44
2023-01-09T12:23:57.939Z,55.17
2023-01-09T12:26:04.511Z,55.43
2023-01-09T12:28:18.424Z,54.75
2023-01-09T12:30:23.985Z,55.05
2023-01-09T12:32:35.698Z,54.52
2023-01-09T12:34:43.868Z,54.96
2023-01-09T12:37:00.304Z,54.74
2023-01-09T12:39:20.031Z,54.12
2023-01-09T12:41:32.479Z,54.89
2023-01-09T12:43:51.590Z,54.32
2023-01-09T12:46:03.112Z,53.04
2023-01-09T12:48:17.904Z,54.04
2023-01-09T12:50:39.772Z,53.87
2023-01-09T12:52:49.023Z,53.90
2023-01-09T12:54:58.671Z,53.41
2023-01-09T12:57:13.568Z,52.51
2023-01-09T12:59:30.877Z,51.61
2023-01-09T13:01:39.026Z,51.14
2023-01-09T13:03:52.615Z,52.02
2023-01-09T13:05:57.472Z,51.89
2023-01-09T13:08:02.868Z,50.47
2023-01-09T13:10:12.219Z,50.91
2023-01-09T13:12:21.909Z,50.96
2023-01-09T13:14:47.745Z,51.66
2023-01-09T13:16:53.492Z,51.17
2023-01-09T13:19:08.117Z,51.25
2023-01-09T13:21:13.884Z,50.89
2023-01-09T13:23:19.623Z,51.38
2023-01-09T13:25:31.595Z,50.94
2023-01-09T13:27:39.682Z,51.10
2023-01-09T13:29:44.223Z,50.60
2023-01-09T13:31:55.887Z,50.86
2023-01-09T13:34:00.540Z,50.70
2023-01-09T13:36:03.854Z,50.34
2023-01-09T13:38:05.787Z,50.25
2023-01-09T13:40:27.335Z,49.75
2023-01-09T13:42:39.336Z,50.48
2023-01-09T13:44:42.643Z,49.54
2023-01-09T13:46:48.498Z,48.81
2023-01-09T13:48:50.440Z,48.47
2023-01-09T13:50:53.969Z,48.17
2023-01-09T13:52:56.330Z,48.42
2023-01-09T13:54:58.827Z,48.34
2023-01-09T13:57:25.561Z,47.91
2023-01-09T13:59:28.646Z,47.79
2023-01-09T14:01:36.116Z,48.64
2023-01-09T14:03:38.733Z,48.42
2023-01-09T14:05:41.003Z,47.43
2023-01-09T14:08:01.395Z,47.97
2023-01-09T14:10:07.939Z,47.46
2023-01-09T14:12:14.125Z,47.25
2023-01-09T14:14:26.390Z,47.05
2023-01-09T14:16:30.745Z,47.03
2023-01-09T14:18:35.918Z,46.91
2023-01-09T14:20:41.533Z,46.75
2023-01-09T14:22:55.892Z,46.79
2023-01-09T14:25:10.346Z,46.19
2023-01-09T14:27:41.711Z,46.84
2023-01-09T14:29:45.273Z,47.29
2023-01-09T14:31:47.327Z,46.98
2023-01-09T14:33:49.369Z,47.59
2023-01-09T14:36:08.433Z,46.75
2023-01-09T14:38:29.487Z,46.68
2023-01-09T14:40:32.412Z,46.49
2023-01-09T14:42:40.766Z,46.33
2023-01-09T14:44:53.963Z,46.15
2023-01-09T14:47:07.601Z,45.68
2023-01-09T14:49:28.402Z,45.50
2023-01-09T14:51:36.144Z,45.74
2023-01-09T14:53:40.264Z,45.56
2023-01-09T14:55:51.252Z,45.47
2023-01-09T14:57:55.193Z,45.97
2023-01-09T15:00:14.524Z,45.46
2023-01-09T15:02:17.536Z,46.50
2023-01-09T15:04:26.869Z,46.54
2023-01-09T15:06:33.482Z,47.30
2023-01-09T15:08:37.087Z,48.59
2023-01-09T15:10:39.157Z,48.96
2023-01-09T15:12:41.533Z,49.47
2023-01-09T15:14:46.082Z,50.69
2023-01-09T15:16:48.383Z,49.71
2023-01-09T15:18:54.942Z,50.48
2023-01-09T15:21:01.483Z,50.73
2023-01-09T15:23:05.584Z,50.43
2023-01-09T15:25:33.827Z,51.07
2023-01-09T15:27:50.658Z,51.49
2023-01-09T15:29:53.119Z,51.00
2023-01-09T15:32:01.477Z,50.91
2023-01-09T15:34:04.643Z,50.63
2023-01-09T15:36:15.929Z,49.80
2023-01-09T15:38:24.003Z,51.88
2023-01-09T15:40:32.610Z,50.89
2023-01-09T15:42:47.307Z,51.55
2023-01-09T15:44:52.326Z,51.15
2023-01-09T15:46:59.824Z,51.64
2023-01-09T15:49:02.018Z,52.06
2023-01-09T15:51:13.688Z,51.50
2023-01-09T15:53:18.704Z,52.40
2023-01-09T15:55:28.088Z,51.94
2023-01-09T15:57:34.287Z,52.51
2023-01-09T15:59:37.103Z,52.40
2023-01-09T16:01:41.739Z,52.61
2023-01-09T16:03:44.007Z,52.82
2023-01-09T16:05:52.115Z,52.95
2023-01-09T16:07:54.055Z,52.34
2023-01-09T16:09:56.225Z,52.19
2023-01-09T16:12:01.852Z,52.20
2023-01-09T16:14:17.044Z,52.89
2023-01-09T16:16:31.236Z,52.27
2023-01-09T16:18:37.544Z,52.77
2023-01-09T16:20:40.342Z,52.63
2023-01-09T16:22:53.360Z,52.32
2023-01-09T16:24:57.992Z,51.55
2023-01-09T16:27:19.567Z,51.27
2023-01-09T16:29:34.003Z,51.10
2023-01-09T16:31:36.415Z,51.06
2023-01-09T16:33:45.533Z,51.60
2023-01-09T16:35:47.476Z,51.05
2023-01-09T16:37:49.468Z,51.65
2023-01-09T16:40:10.608Z,51.65
2023-01-09T16:42:22.304Z,51.12
2023-01-09T16:44:24.268Z,51.32
2023-01-09T16:46:26.693Z,51.41
2023-01-09T16:48:29.274Z,51.38
2023-01-09T16:50:31.330Z,51.81
2023-01-09T16:52:33.298Z,51.89
2023-01-09T16:54:35.219Z,51.93
2023-01-09T16:56:39.362Z,51.90
2023-01-09T16:58:41.467Z,51.53
2023-01-09T17:00:43.384Z,51.70
2023-01-09T17:02:45.643Z,51.69
2023-01-09T17:04:47.797Z,51.93
2023-01-09T17:06:50.299Z,52.47
2023-01-09T17:08:52.208Z,52.42
2023-01-09T17:10:56.028Z,52.62
2023-01-09T17:12:57.979Z,51.98
2023-01-09T17:15:01.527Z,52.45
2023-01-09T17:17:03.590Z,52.89
2023-01-09T17:19:06.221Z,53.32
2023-01-09T17:21:16.483Z,52.13
2023-01-09T17:23:18.625Z,52.59
2023-01-09T17:25:30.345Z,52.21
2023-01-09T17:27:45.704Z,51.35
2023-01-09T17:29:48.476Z,52.37
2023-01-09T17:31:50.558Z,51.38
2023-01-09T17:33:53.053Z,51.57
2023-01-09T17:35:56.124Z,51.71
2023-01-09T17:37:58.334Z,52.24
2023-01-09T17:40:03.753Z,52.11
2023-01-09T17:42:05.763Z,51.86
2023-01-09T17:44:07.869Z,51.70
2023-01-09T17:48:20.172Z,51.79
2023-01-09T17:50:22.663Z,51.66
2023-01-09T17:52:26.684Z,52.21
2023-01-09T17:54:28.653Z,51.53
2023-01-09T17:56:33.312Z,52.16
2023-01-09T17:58:35.364Z,51.51
2023-01-09T18:00:37.267Z,52.04
2023-01-09T18:02:39.342Z,52.11
2023-01-09T18:04:41.302Z,52.27
2023-01-09T18:06:43.495Z,52.52
2023-01-09T18:08:45.883Z,51.93
2023-01-09T18:10:48.784Z,52.17
2023-01-09T18:12:52.495Z,52.45
2023-01-09T18:14:54.501Z,52.15
2023-01-09T18:16:57.076Z,52.11
2023-01-09T18:18:59.604Z,52.43
2023-01-09T18:21:04.904Z,52.91
2023-01-09T18:23:07.770Z,52.12
2023-01-09T18:25:10.327Z,53.04
2023-01-09T18:27:12.261Z,53.10
2023-01-09T18:29:15.387Z,53.17
2023-01-09T18:31:22.209Z,53.45
2023-01-09T18:33:24.325Z,54.01
2023-01-09T18:35:26.187Z,53.54
2023-01-09T18:37:28.271Z,53.02
2023-01-09T18:39:30.303Z,52.99
2023-01-09T18:41:32.645Z,54.08
2023-01-09T18:43:34.583Z,53.44
2023-01-09T18:45:38.852Z,53.38
2023-01-09T18:47:40.842Z,53.07
2023-01-09T18:49:42.725Z,53.80
2023-01-09T18:51:44.661Z,53.38
2023-01-09T18:53:50.549Z,54.32
2023-01-09T18:55:52.454Z,54.17
2023-01-09T18:57:56.323Z,53.62
2023-01-09T18:59:58.223Z,53.27
2023-01-09T19:02:02.135Z,54.12
2023-01-09T19:04:04.675Z,54.70
2023-01-09T19:06:07.317Z,54.37
2023-01-09T19:08:09.402Z,54.73
2023-01-09T19:10:12.102Z,54.53
2023-01-09T19:12:13.994Z,54.29
2023-01-09T19:14:16.216Z,54.78
2023-01-09T19:16:18.739Z,54.83
2023-01-09T19:18:20.684Z,54.39
2023-01-09T19:20:23.268Z,54.85
2023-01-09T19:22:26.985Z,54.17
2023-01-09T19:24:28.978Z,55.15
2023-01-09T19:26:31.390Z,54.98
2023-01-09T19:28:33.352Z,55.27
2023-01-09T19:30:35.624Z,54.66
2023-01-09T19:32:40.007Z,54.95
2023-01-09T19:34:41.904Z,54.26
2023-01-09T19:36:44.922Z,54.47
2023-01-09T19:38:46.923Z,54.04
2023-01-09T19:42:53.537Z,54.57
2023-01-09T19:44:55.332Z,54.01
2023-01-09T19:46:57.216Z,53.68
2023-01-09T19:49:01.840Z,54.12
2023-01-09T19:51:05.821Z,54.51
2023-01-09T19:53:07.777Z,54.07
2023-01-09T19:55:13.667Z,54.23
2023-01-09T19:57:15.525Z,54.67
2023-01-09T19:59:17.634Z,54.28
2023-01-09T20:01:24.846Z,54.28
2023-01-09T20:03:26.925Z,54.20
2023-01-09T20:05:29.327Z,54.91
2023-01-09T20:07:31.276Z,54.53
2023-01-09T20:09:33.329Z,54.86
2023-01-09T20:11:35.271Z,55.19
2023-01-09T20:13:37.881Z,54.85
2023-01-09T20:15:40.767Z,55.65
2023-01-09T20:17:42.990Z,56.19
2023-01-09T20:19:45.687Z,56.38
2023-01-09T20:21:47.859Z,56.19
2023-01-09T20:23:50.710Z,56.07
2023-01-09T20:25:52.769Z,56.73
2023-01-09T20:27:54.813Z,57.19
2023-01-09T20:29:56.792Z,57.34
2023-01-09T20:31:58.677Z,57.63
2023-01-09T20:34:01.682Z,57.46
2023-01-09T20:36:05.098Z,57.62
2023-01-09T20:38:07.522Z,57.36
2023-01-09T20:40:10.750Z,57.43
2023-01-09T20:42:12.825Z,57.58
2023-01-09T20:44:16.058Z,57.70
2023-01-09T20:46:18.400Z,57.55
2023-01-09T20:48:20.803Z,57.66
2023-01-09T20:50:23.057Z,57.81
2023-01-09T20:52:24.974Z,58.10
2023-01-09T20:54:27.152Z,58.07
2023-01-09T20:56:32.062Z,57.88
2023-01-09T20:58:34.726Z,57.85
2023-01-09T21:00:37.006Z,57.87
2023-01-09T21:02:39.308Z,57.68
2023-01-09T21:04:41.333Z,57.89
2023-01-09T21:06:43.820Z,57.97
2023-01-09T21:08:47.475Z,57.65
2023-01-09T21:10:49.573Z,57.37
2023-01-09T21:12:52.891Z,57.20
2023-01-09T21:14:55.697Z,57.43
2023-01-09T21:16:57.725Z,57.76
2023-01-09T21:18:59.718Z,58.25
2023-01-09T21:21:04.813Z,58.01
2023-01-09T21:23:08.467Z,58.04
2023-01-09T21:25:10.816Z,58.42
2023-01-09T21:27:13.848Z,57.82
2023-01-09T21:29:16.781Z,58.63
2023-01-09T21:31:23.073Z,58.06
2023-01-09T21:33:24.883Z,57.87
2023-01-09T21:35:26.847Z,58.89
2023-01-09T21:37:30.156Z,58.42
2023-01-09T21:39:32.394Z,58.83
2023-01-09T21:41:43.790Z,59.01
2023-01-09T21:43:55.315Z,58.72
2023-01-09T21:46:07.349Z,58.79
2023-01-09T21:48:09.372Z,60.12
2023-01-09T21:50:11.339Z,59.14
2023-01-09T21:52:14.273Z,58.55
2023-01-09T21:54:16.074Z,58.51
2023-01-09T21:56:17.856Z,58.26
2023-01-09T21:58:19.749Z,58.25
2023-01-09T22:00:22.105Z,58.15
2023-01-09T22:02:24.008Z,58.25
2023-01-09T22:04:29.131Z,58.07
2023-01-09T22:06:31.545Z,58.17
2023-01-09T22:08:33.429Z,57.64
2023-01-09T22:10:35.268Z,57.87
2023-01-09T22:12:37.168Z,57.86
2023-01-09T22:14:39.723Z,57.91
2023-01-09T22:16:43.746Z,57.92
2023-01-09T22:18:45.666Z,57.82
2023-01-09T22:20:47.428Z,57.63
2023-01-09T22:22:49.673Z,58.16
2023-01-09T22:24:53.254Z,58.23
2023-01-09T22:26:55.124Z,58.12
2023-01-09T22:28:57.504Z,57.97
2023-01-09T22:30:59.402Z,58.63
2023-01-09T22:33:02.810Z,57.95
2023-01-09T22:35:05.442Z,57.70
2023-01-09T22:37:07.310Z,58.03
2023-01-09T22:39:12.449Z,58.18
2023-01-09T22:41:14.711Z,58.21
2023-01-09T22:43:17.368Z,58.06
2023-01-09T22:45:19.552Z,58.71
2023-01-09T22:47:21.472Z,58.53
2023-01-09T22:49:23.366Z,58.18
2023-01-09T22:51:25.207Z,58.43
2023-01-09T22:53:27.620Z,58.40
2023-01-09T22:55:29.451Z,58.37
2023-01-09T22:57:31.633Z,57.69
2023-01-09T22:59:33.462Z,58.01
2023-01-09T23:01:35.357Z,58.27
2023-01-09T23:03:37.217Z,58.38
2023-01-09T23:05:39.056Z,58.47
2023-01-09T23:07:40.997Z,58.27
2023-01-09T23:09:42.847Z,58.06
2023-01-09T23:11:54.597Z,58.29
2023-01-09T23:13:56.386Z,57.90
2023-01-09T23:15:58.597Z,57.61
2023-01-09T23:18:00.508Z,57.45
2023-01-09T23:20:02.333Z,57.94
2023-01-09T23:22:05.142Z,57.92
2023-01-09T23:24:07.848Z,58.14
2023-01-09T23:26:09.649Z,57.95
2023-01-09T23:28:11.483Z,57.92
2023-01-09T23:30:14.003Z,58.09
2023-01-09T23:32:15.839Z,57.74
2023-01-09T23:34:20.237Z,57.95
2023-01-09T23:36:22.576Z,57.85
2023-01-09T23:38:24.432Z,58.14
2023-01-09T23:40:26.351Z,58.26
2023-01-09T23:42:37.487Z,58.08
2023-01-09T23:44:39.534Z,58.14
2023-01-09T23:46:41.490Z,57.96
2023-01-09T23:48:43.313Z,57.88
2023-01-09T23:50:54.879Z,58.29
2023-01-09T23:52:56.659Z,58.37
2023-01-09T23:54:58.430Z,58.45
2023-01-09T23:57:00.285Z,58.53
2023-01-09T23:59:05.123Z,59.17
